sensor_id;sensor_type;location;lat;lon;timestamp;P1;durP1;ratioP1;P2;durP2;ratioP2
44048;SDS011;29717;47.028;15.470;2023-06-10T00:00:17;7.95;;;6.20;;
44048;SDS011;29717;47.028;15.470;2023-06-10T00:02:57;8.50;;;7.28;;
44048;SDS011;29717;47.028;15.470;2023-06-10T00:05:30;8.73;;;6.90;;
44048;SDS011;29717;47.028;15.470;2023-06-10T00:08:07;8.02;;;6.60;;
44048;SDS011;29717;47.028;15.470;2023-06-10T00:10:37;8.15;;;6.30;;
44048;SDS011;29717;47.028;15.470;2023-06-10T00:13:13;7.75;;;5.80;;
44048;SDS011;29717;47.028;15.470;2023-06-10T00:15:47;8.23;;;5.93;;
44048;SDS011;29717;47.028;15.470;2023-06-10T00:18:14;7.65;;;6.45;;
44048;SDS011;29717;47.028;15.470;2023-06-10T00:20:50;6.78;;;5.93;;
44048;SDS011;29717;47.028;15.470;2023-06-10T00:23:18;8.20;;;6.40;;
44048;SDS011;29717;47.028;15.470;2023-06-10T00:25:45;7.82;;;7.03;;
44048;SDS011;29717;47.028;15.470;2023-06-10T00:28:12;11.27;;;6.93;;
44048;SDS011;29717;47.028;15.470;2023-06-10T00:30:40;7.05;;;6.45;;
44048;SDS011;29717;47.028;15.470;2023-06-10T00:33:09;7.45;;;6.75;;
44048;SDS011;29717;47.028;15.470;2023-06-10T00:35:36;8.45;;;6.63;;
44048;SDS011;29717;47.028;15.470;2023-06-10T00:38:03;7.82;;;6.50;;
44048;SDS011;29717;47.028;15.470;2023-06-10T00:40:30;7.90;;;6.80;;
44048;SDS011;29717;47.028;15.470;2023-06-10T00:42:57;8.00;;;6.80;;
44048;SDS011;29717;47.028;15.470;2023-06-10T00:45:24;7.40;;;6.70;;
44048;SDS011;29717;47.028;15.470;2023-06-10T00:47:50;7.43;;;6.53;;
44048;SDS011;29717;47.028;15.470;2023-06-10T00:50:19;7.30;;;6.60;;
44048;SDS011;29717;47.028;15.470;2023-06-10T00:52:46;8.93;;;7.32;;
44048;SDS011;29717;47.028;15.470;2023-06-10T00:55:13;7.53;;;6.35;;
44048;SDS011;29717;47.028;15.470;2023-06-10T00:57:40;10.88;;;6.03;;
44048;SDS011;29717;47.028;15.470;2023-06-10T01:00:10;7.68;;;5.97;;
44048;SDS011;29717;47.028;15.470;2023-06-10T01:02:37;8.80;;;6.25;;
44048;SDS011;29717;47.028;15.470;2023-06-10T01:05:04;8.15;;;6.32;;
44048;SDS011;29717;47.028;15.470;2023-06-10T01:07:34;8.40;;;6.72;;
44048;SDS011;29717;47.028;15.470;2023-06-10T01:10:04;7.22;;;6.57;;
44048;SDS011;29717;47.028;15.470;2023-06-10T01:12:34;10.70;;;6.60;;
44048;SDS011;29717;47.028;15.470;2023-06-10T01:15:05;8.05;;;7.00;;
44048;SDS011;29717;47.028;15.470;2023-06-10T01:17:33;8.45;;;6.65;;
44048;SDS011;29717;47.028;15.470;2023-06-10T01:20:02;8.15;;;7.30;;
44048;SDS011;29717;47.028;15.470;2023-06-10T01:22:41;7.70;;;7.00;;
44048;SDS011;29717;47.028;15.470;2023-06-10T01:25:08;9.60;;;6.90;;
44048;SDS011;29717;47.028;15.470;2023-06-10T01:27:37;7.60;;;6.78;;
44048;SDS011;29717;47.028;15.470;2023-06-10T01:30:07;7.40;;;6.70;;
44048;SDS011;29717;47.028;15.470;2023-06-10T01:32:37;7.93;;;6.65;;
44048;SDS011;29717;47.028;15.470;2023-06-10T01:35:06;8.15;;;6.38;;
44048;SDS011;29717;47.028;15.470;2023-06-10T01:37:34;8.73;;;7.00;;
44048;SDS011;29717;47.028;15.470;2023-06-10T01:40:04;10.60;;;7.10;;
44048;SDS011;29717;47.028;15.470;2023-06-10T01:42:32;8.00;;;7.18;;
44048;SDS011;29717;47.028;15.470;2023-06-10T01:44:59;8.25;;;6.55;;
44048;SDS011;29717;47.028;15.470;2023-06-10T01:47:26;7.70;;;6.90;;
44048;SDS011;29717;47.028;15.470;2023-06-10T01:49:53;6.68;;;6.00;;
44048;SDS011;29717;47.028;15.470;2023-06-10T01:52:20;8.95;;;6.20;;
44048;SDS011;29717;47.028;15.470;2023-06-10T01:54:47;8.02;;;6.38;;
44048;SDS011;29717;47.028;15.470;2023-06-10T01:57:15;9.40;;;6.05;;
44048;SDS011;29717;47.028;15.470;2023-06-10T01:59:42;6.75;;;6.15;;
44048;SDS011;29717;47.028;15.470;2023-06-10T02:02:10;6.82;;;6.22;;
44048;SDS011;29717;47.028;15.470;2023-06-10T02:04:37;7.20;;;6.45;;
44048;SDS011;29717;47.028;15.470;2023-06-10T02:07:05;7.65;;;5.72;;
44048;SDS011;29717;47.028;15.470;2023-06-10T02:09:32;10.02;;;6.60;;
44048;SDS011;29717;47.028;15.470;2023-06-10T02:12:01;7.97;;;6.35;;
44048;SDS011;29717;47.028;15.470;2023-06-10T02:14:29;7.40;;;6.15;;
44048;SDS011;29717;47.028;15.470;2023-06-10T02:16:56;7.68;;;6.53;;
44048;SDS011;29717;47.028;15.470;2023-06-10T02:19:23;7.22;;;6.53;;
44048;SDS011;29717;47.028;15.470;2023-06-10T02:21:52;7.80;;;7.10;;
44048;SDS011;29717;47.028;15.470;2023-06-10T02:24:19;7.00;;;6.30;;
44048;SDS011;29717;47.028;15.470;2023-06-10T02:26:46;9.50;;;5.72;;
44048;SDS011;29717;47.028;15.470;2023-06-10T02:29:13;6.93;;;6.22;;
44048;SDS011;29717;47.028;15.470;2023-06-10T02:31:42;9.30;;;8.02;;
44048;SDS011;29717;47.028;15.470;2023-06-10T02:34:09;8.82;;;7.80;;
44048;SDS011;29717;47.028;15.470;2023-06-10T02:36:35;10.65;;;7.75;;
44048;SDS011;29717;47.028;15.470;2023-06-10T02:39:02;13.90;;;8.27;;
44048;SDS011;29717;47.028;15.470;2023-06-10T02:41:29;8.57;;;7.25;;
44048;SDS011;29717;47.028;15.470;2023-06-10T02:43:56;7.60;;;6.90;;
44048;SDS011;29717;47.028;15.470;2023-06-10T02:46:23;7.68;;;6.88;;
44048;SDS011;29717;47.028;15.470;2023-06-10T02:48:52;8.50;;;7.70;;
44048;SDS011;29717;47.028;15.470;2023-06-10T02:51:18;9.73;;;7.82;;
44048;SDS011;29717;47.028;15.470;2023-06-10T02:53:46;10.20;;;7.43;;
44048;SDS011;29717;47.028;15.470;2023-06-10T02:56:15;9.35;;;7.70;;
44048;SDS011;29717;47.028;15.470;2023-06-10T02:58:42;8.13;;;7.40;;
44048;SDS011;29717;47.028;15.470;2023-06-10T03:01:09;8.20;;;7.28;;
44048;SDS011;29717;47.028;15.470;2023-06-10T03:03:42;14.48;;;7.78;;
44048;SDS011;29717;47.028;15.470;2023-06-10T03:06:22;9.55;;;7.50;;
44048;SDS011;29717;47.028;15.470;2023-06-10T03:08:57;8.02;;;7.30;;
44048;SDS011;29717;47.028;15.470;2023-06-10T03:11:26;8.13;;;7.43;;
44048;SDS011;29717;47.028;15.470;2023-06-10T03:14:03;7.95;;;6.55;;
44048;SDS011;29717;47.028;15.470;2023-06-10T03:17:00;9.65;;;6.65;;
44048;SDS011;29717;47.028;15.470;2023-06-10T03:46:19;11.45;;;7.53;;
44048;SDS011;29717;47.028;15.470;2023-06-10T03:48:46;6.25;;;5.70;;
44048;SDS011;29717;47.028;15.470;2023-06-10T05:19:55;8.43;;;7.63;;
44048;SDS011;29717;47.028;15.470;2023-06-10T05:22:22;8.05;;;7.25;;
44048;SDS011;29717;47.028;15.470;2023-06-10T05:24:50;10.32;;;7.82;;
44048;SDS011;29717;47.028;15.470;2023-06-10T05:27:17;8.85;;;7.93;;
44048;SDS011;29717;47.028;15.470;2023-06-10T05:29:44;8.25;;;6.82;;
44048;SDS011;29717;47.028;15.470;2023-06-10T05:32:11;7.40;;;6.70;;
44048;SDS011;29717;47.028;15.470;2023-06-10T05:34:38;7.60;;;6.97;;
44048;SDS011;29717;47.028;15.470;2023-06-10T05:37:07;7.97;;;7.28;;
44048;SDS011;29717;47.028;15.470;2023-06-10T05:39:36;7.60;;;6.90;;
44048;SDS011;29717;47.028;15.470;2023-06-10T05:42:06;11.13;;;7.63;;
44048;SDS011;29717;47.028;15.470;2023-06-10T05:44:33;6.85;;;6.35;;
44048;SDS011;29717;47.028;15.470;2023-06-10T05:47:00;8.02;;;7.22;;
44048;SDS011;29717;47.028;15.470;2023-06-10T05:49:26;7.60;;;7.00;;
44048;SDS011;29717;47.028;15.470;2023-06-10T05:51:54;7.45;;;6.80;;
44048;SDS011;29717;47.028;15.470;2023-06-10T05:54:22;7.00;;;6.40;;
44048;SDS011;29717;47.028;15.470;2023-06-10T05:56:49;7.80;;;6.95;;
44048;SDS011;29717;47.028;15.470;2023-06-10T05:59:16;8.35;;;7.05;;
44048;SDS011;29717;47.028;15.470;2023-06-10T06:01:43;8.70;;;6.95;;
44048;SDS011;29717;47.028;15.470;2023-06-10T06:04:10;7.05;;;6.45;;
44048;SDS011;29717;47.028;15.470;2023-06-10T06:06:38;7.18;;;6.57;;
44048;SDS011;29717;47.028;15.470;2023-06-10T06:09:05;7.00;;;6.30;;
44048;SDS011;29717;47.028;15.470;2023-06-10T06:11:33;7.38;;;6.63;;
44048;SDS011;29717;47.028;15.470;2023-06-10T06:14:00;8.60;;;6.80;;
44048;SDS011;29717;47.028;15.470;2023-06-10T06:16:27;7.65;;;6.90;;
44048;SDS011;29717;47.028;15.470;2023-06-10T06:18:54;7.72;;;6.88;;
44048;SDS011;29717;47.028;15.470;2023-06-10T06:21:21;11.45;;;7.20;;
44048;SDS011;29717;47.028;15.470;2023-06-10T06:23:48;16.38;;;14.93;;
44048;SDS011;29717;47.028;15.470;2023-06-10T06:26:15;66.10;;;33.10;;
44048;SDS011;29717;47.028;15.470;2023-06-10T06:28:43;314.63;;;184.40;;
44048;SDS011;29717;47.028;15.470;2023-06-10T06:31:10;17.27;;;13.50;;
44048;SDS011;29717;47.028;15.470;2023-06-10T06:33:37;8.73;;;6.88;;
44048;SDS011;29717;47.028;15.470;2023-06-10T06:36:04;8.27;;;5.93;;
44048;SDS011;29717;47.028;15.470;2023-06-10T06:38:31;7.47;;;6.82;;
44048;SDS011;29717;47.028;15.470;2023-06-10T06:40:58;8.38;;;6.88;;
44048;SDS011;29717;47.028;15.470;2023-06-10T06:43:28;7.57;;;6.93;;
44048;SDS011;29717;47.028;15.470;2023-06-10T06:45:56;7.05;;;6.45;;
44048;SDS011;29717;47.028;15.470;2023-06-10T06:48:23;9.93;;;6.32;;
44048;SDS011;29717;47.028;15.470;2023-06-10T06:50:50;8.35;;;7.55;;
44048;SDS011;29717;47.028;15.470;2023-06-10T06:53:17;7.78;;;6.57;;
44048;SDS011;29717;47.028;15.470;2023-06-10T06:55:45;7.47;;;6.78;;
44048;SDS011;29717;47.028;15.470;2023-06-10T06:58:12;6.40;;;5.75;;
44048;SDS011;29717;47.028;15.470;2023-06-10T07:00:39;9.25;;;6.50;;
44048;SDS011;29717;47.028;15.470;2023-06-10T07:03:07;7.90;;;7.18;;
44048;SDS011;29717;47.028;15.470;2023-06-10T07:05:34;7.75;;;6.40;;
44048;SDS011;29717;47.028;15.470;2023-06-10T07:08:05;6.90;;;5.90;;
44048;SDS011;29717;47.028;15.470;2023-06-10T07:10:34;7.40;;;6.70;;
44048;SDS011;29717;47.028;15.470;2023-06-10T07:15:36;6.97;;;5.70;;
44048;SDS011;29717;47.028;15.470;2023-06-10T07:18:05;6.90;;;6.10;;
44048;SDS011;29717;47.028;15.470;2023-06-10T07:20:33;9.40;;;6.22;;
44048;SDS011;29717;47.028;15.470;2023-06-10T07:23:00;7.03;;;6.35;;
44048;SDS011;29717;47.028;15.470;2023-06-10T07:25:27;8.18;;;7.43;;
44048;SDS011;29717;47.028;15.470;2023-06-10T07:27:54;11.23;;;8.68;;
44048;SDS011;29717;47.028;15.470;2023-06-10T07:30:23;8.15;;;7.35;;
44048;SDS011;29717;47.028;15.470;2023-06-10T07:32:50;19.33;;;15.80;;
44048;SDS011;29717;47.028;15.470;2023-06-10T07:35:17;9.98;;;8.93;;
44048;SDS011;29717;47.028;15.470;2023-06-10T07:37:46;9.10;;;8.20;;
44048;SDS011;29717;47.028;15.470;2023-06-10T07:40:13;7.88;;;6.78;;
44048;SDS011;29717;47.028;15.470;2023-06-10T07:42:40;8.02;;;6.88;;
44048;SDS011;29717;47.028;15.470;2023-06-10T07:45:08;7.65;;;6.85;;
44048;SDS011;29717;47.028;15.470;2023-06-10T07:47:35;8.05;;;7.20;;
44048;SDS011;29717;47.028;15.470;2023-06-10T07:50:02;7.95;;;7.18;;
44048;SDS011;29717;47.028;15.470;2023-06-10T07:52:32;6.97;;;6.22;;
44048;SDS011;29717;47.028;15.470;2023-06-10T07:55:02;7.00;;;6.30;;
44048;SDS011;29717;47.028;15.470;2023-06-10T07:57:29;7.65;;;6.60;;
44048;SDS011;29717;47.028;15.470;2023-06-10T07:59:57;7.00;;;6.30;;
44048;SDS011;29717;47.028;15.470;2023-06-10T08:02:25;6.60;;;6.00;;
44048;SDS011;29717;47.028;15.470;2023-06-10T08:04:52;7.93;;;7.13;;
44048;SDS011;29717;47.028;15.470;2023-06-10T08:07:20;7.13;;;6.25;;
44048;SDS011;29717;47.028;15.470;2023-06-10T08:09:47;7.50;;;6.80;;
44048;SDS011;29717;47.028;15.470;2023-06-10T08:12:16;8.15;;;6.90;;
44048;SDS011;29717;47.028;15.470;2023-06-10T08:14:45;6.90;;;6.30;;
44048;SDS011;29717;47.028;15.470;2023-06-10T08:17:12;6.32;;;5.72;;
44048;SDS011;29717;47.028;15.470;2023-06-10T08:19:39;5.80;;;5.30;;
44048;SDS011;29717;47.028;15.470;2023-06-10T08:22:06;6.50;;;5.72;;
44048;SDS011;29717;47.028;15.470;2023-06-10T08:24:33;6.22;;;5.72;;
44048;SDS011;29717;47.028;15.470;2023-06-10T08:27:02;6.90;;;5.88;;
44048;SDS011;29717;47.028;15.470;2023-06-10T08:29:32;5.80;;;4.97;;
44048;SDS011;29717;47.028;15.470;2023-06-10T08:31:59;7.07;;;6.47;;
44048;SDS011;29717;47.028;15.470;2023-06-10T08:34:26;5.68;;;5.18;;
44048;SDS011;29717;47.028;15.470;2023-06-10T08:36:53;6.38;;;5.78;;
44048;SDS011;29717;47.028;15.470;2023-06-10T08:39:20;7.35;;;6.18;;
44048;SDS011;29717;47.028;15.470;2023-06-10T08:41:51;7.10;;;5.95;;
44048;SDS011;29717;47.028;15.470;2023-06-10T08:44:27;6.55;;;6.05;;
44048;SDS011;29717;47.028;15.470;2023-06-10T08:46:57;6.97;;;6.38;;
44048;SDS011;29717;47.028;15.470;2023-06-10T08:49:25;7.43;;;6.45;;
44048;SDS011;29717;47.028;15.470;2023-06-10T08:51:57;6.97;;;6.38;;
44048;SDS011;29717;47.028;15.470;2023-06-10T08:54:27;7.00;;;6.40;;
44048;SDS011;29717;47.028;15.470;2023-06-10T08:56:55;7.07;;;6.13;;
44048;SDS011;29717;47.028;15.470;2023-06-10T09:02:09;6.32;;;5.72;;
44048;SDS011;29717;47.028;15.470;2023-06-10T09:04:48;6.32;;;5.78;;
44048;SDS011;29717;47.028;15.470;2023-06-10T09:07:16;6.25;;;5.68;;
44048;SDS011;29717;47.028;15.470;2023-06-10T09:09:44;7.43;;;6.72;;
44048;SDS011;29717;47.028;15.470;2023-06-10T09:12:14;6.57;;;5.97;;
44048;SDS011;29717;47.028;15.470;2023-06-10T09:14:41;6.78;;;6.07;;
44048;SDS011;29717;47.028;15.470;2023-06-10T09:17:13;6.68;;;6.07;;
44048;SDS011;29717;47.028;15.470;2023-06-10T09:19:40;6.97;;;5.90;;
44048;SDS011;29717;47.028;15.470;2023-06-10T09:22:07;7.22;;;6.63;;
44048;SDS011;29717;47.028;15.470;2023-06-10T09:24:36;6.63;;;6.00;;
44048;SDS011;29717;47.028;15.470;2023-06-10T09:27:04;6.90;;;6.30;;
44048;SDS011;29717;47.028;15.470;2023-06-10T09:29:33;6.35;;;5.82;;
44048;SDS011;29717;47.028;15.470;2023-06-10T09:32:14;6.50;;;5.63;;
44048;SDS011;29717;47.028;15.470;2023-06-10T09:34:42;6.55;;;6.03;;
44048;SDS011;29717;47.028;15.470;2023-06-10T09:37:11;6.72;;;6.00;;
44048;SDS011;29717;47.028;15.470;2023-06-10T09:39:39;7.68;;;6.97;;
44048;SDS011;29717;47.028;15.470;2023-06-10T09:42:15;7.43;;;6.72;;
44048;SDS011;29717;47.028;15.470;2023-06-10T09:44:46;8.85;;;7.07;;
44048;SDS011;29717;47.028;15.470;2023-06-10T09:47:21;7.60;;;6.22;;
44048;SDS011;29717;47.028;15.470;2023-06-10T09:49:49;8.15;;;6.60;;
44048;SDS011;29717;47.028;15.470;2023-06-10T09:52:21;6.97;;;6.15;;
44048;SDS011;29717;47.028;15.470;2023-06-10T09:54:47;6.47;;;5.88;;
44048;SDS011;29717;47.028;15.470;2023-06-10T09:57:14;5.88;;;5.38;;
44048;SDS011;29717;47.028;15.470;2023-06-10T09:59:43;8.23;;;5.63;;
44048;SDS011;29717;47.028;15.470;2023-06-10T10:02:15;6.65;;;5.50;;
44048;SDS011;29717;47.028;15.470;2023-06-10T10:04:44;6.25;;;5.65;;
44048;SDS011;29717;47.028;15.470;2023-06-10T10:07:11;6.13;;;5.63;;
44048;SDS011;29717;47.028;15.470;2023-06-10T10:09:39;5.53;;;5.13;;
44048;SDS011;29717;47.028;15.470;2023-06-10T10:12:07;5.20;;;4.70;;
44048;SDS011;29717;47.028;15.470;2023-06-10T10:14:37;6.13;;;5.63;;
44048;SDS011;29717;47.028;15.470;2023-06-10T10:17:05;6.38;;;5.85;;
44048;SDS011;29717;47.028;15.470;2023-06-10T10:19:35;5.28;;;4.78;;
44048;SDS011;29717;47.028;15.470;2023-06-10T10:22:06;6.15;;;5.50;;
44048;SDS011;29717;47.028;15.470;2023-06-10T10:24:35;6.65;;;5.18;;
44048;SDS011;29717;47.028;15.470;2023-06-10T10:27:04;9.35;;;6.05;;
44048;SDS011;29717;47.028;15.470;2023-06-10T10:29:36;5.15;;;4.75;;
44048;SDS011;29717;47.028;15.470;2023-06-10T10:32:05;6.13;;;5.22;;
44048;SDS011;29717;47.028;15.470;2023-06-10T10:34:34;5.03;;;4.60;;
44048;SDS011;29717;47.028;15.470;2023-06-10T10:37:02;5.78;;;5.28;;
44048;SDS011;29717;47.028;15.470;2023-06-10T10:39:31;5.22;;;4.82;;
44048;SDS011;29717;47.028;15.470;2023-06-10T10:41:59;5.57;;;5.13;;
44048;SDS011;29717;47.028;15.470;2023-06-10T10:44:28;5.47;;;4.93;;
44048;SDS011;29717;47.028;15.470;2023-06-10T10:46:56;5.20;;;4.70;;
44048;SDS011;29717;47.028;15.470;2023-06-10T10:49:23;4.75;;;4.35;;
44048;SDS011;29717;47.028;15.470;2023-06-10T10:51:55;4.85;;;4.45;;
44048;SDS011;29717;47.028;15.470;2023-06-10T10:54:31;6.93;;;4.50;;
44048;SDS011;29717;47.028;15.470;2023-06-10T10:57:11;4.57;;;4.20;;
44048;SDS011;29717;47.028;15.470;2023-06-10T10:59:56;4.10;;;3.78;;
44048;SDS011;29717;47.028;15.470;2023-06-10T11:02:35;4.85;;;4.45;;
44048;SDS011;29717;47.028;15.470;2023-06-10T11:05:04;4.15;;;3.75;;
44048;SDS011;29717;47.028;15.470;2023-06-10T11:07:31;3.85;;;3.55;;
44048;SDS011;29717;47.028;15.470;2023-06-10T11:10:00;4.18;;;3.78;;
44048;SDS011;29717;47.028;15.470;2023-06-10T11:12:40;3.95;;;3.55;;
44048;SDS011;29717;47.028;15.470;2023-06-10T11:15:07;4.18;;;3.80;;
44048;SDS011;29717;47.028;15.470;2023-06-10T11:17:34;3.95;;;3.55;;
44048;SDS011;29717;47.028;15.470;2023-06-10T11:20:01;4.10;;;3.70;;
44048;SDS011;29717;47.028;15.470;2023-06-10T11:22:28;4.38;;;3.40;;
44048;SDS011;29717;47.028;15.470;2023-06-10T11:24:55;4.22;;;3.85;;
44048;SDS011;29717;47.028;15.470;2023-06-10T11:27:25;4.30;;;3.97;;
44048;SDS011;29717;47.028;15.470;2023-06-10T11:30:19;5.28;;;4.00;;
44048;SDS011;29717;47.028;15.470;2023-06-10T11:32:50;4.03;;;3.63;;
44048;SDS011;29717;47.028;15.470;2023-06-10T11:35:18;4.20;;;3.90;;
44048;SDS011;29717;47.028;15.470;2023-06-10T11:37:46;4.57;;;3.88;;
44048;SDS011;29717;47.028;15.470;2023-06-10T11:40:14;4.13;;;3.80;;
44048;SDS011;29717;47.028;15.470;2023-06-10T11:42:46;4.40;;;4.00;;
44048;SDS011;29717;47.028;15.470;2023-06-10T11:45:16;4.35;;;3.97;;
44048;SDS011;29717;47.028;15.470;2023-06-10T11:47:55;4.53;;;4.10;;
44048;SDS011;29717;47.028;15.470;2023-06-10T11:50:28;4.10;;;3.70;;
44048;SDS011;29717;47.028;15.470;2023-06-10T11:52:56;4.43;;;4.03;;
44048;SDS011;29717;47.028;15.470;2023-06-10T11:55:24;4.18;;;3.78;;
44048;SDS011;29717;47.028;15.470;2023-06-10T11:57:52;4.13;;;3.75;;
44048;SDS011;29717;47.028;15.470;2023-06-10T12:00:23;3.88;;;3.58;;
44048;SDS011;29717;47.028;15.470;2023-06-10T12:02:55;4.47;;;4.13;;
44048;SDS011;29717;47.028;15.470;2023-06-10T12:05:25;4.28;;;3.63;;
44048;SDS011;29717;47.028;15.470;2023-06-10T12:10:37;4.68;;;3.90;;
44048;SDS011;29717;47.028;15.470;2023-06-10T12:13:09;6.45;;;3.70;;
44048;SDS011;29717;47.028;15.470;2023-06-10T12:18:23;3.83;;;3.53;;
44048;SDS011;29717;47.028;15.470;2023-06-10T12:20:50;3.85;;;3.55;;
44048;SDS011;29717;47.028;15.470;2023-06-10T12:23:18;4.57;;;3.60;;
44048;SDS011;29717;47.028;15.470;2023-06-10T12:26:01;3.80;;;3.50;;
44048;SDS011;29717;47.028;15.470;2023-06-10T12:28:30;4.22;;;3.83;;
44048;SDS011;29717;47.028;15.470;2023-06-10T12:31:05;3.95;;;3.30;;
44048;SDS011;29717;47.028;15.470;2023-06-10T12:33:32;4.07;;;3.70;;
44048;SDS011;29717;47.028;15.470;2023-06-10T12:35:59;4.45;;;4.10;;
44048;SDS011;29717;47.028;15.470;2023-06-10T12:38:32;4.07;;;3.78;;
44048;SDS011;29717;47.028;15.470;2023-06-10T12:41:04;4.22;;;3.83;;
44048;SDS011;29717;47.028;15.470;2023-06-10T12:43:33;4.45;;;4.00;;
44048;SDS011;29717;47.028;15.470;2023-06-10T12:46:08;5.15;;;4.00;;
44048;SDS011;29717;47.028;15.470;2023-06-10T12:48:43;5.30;;;3.70;;
44048;SDS011;29717;47.028;15.470;2023-06-10T12:51:16;3.83;;;3.53;;
44048;SDS011;29717;47.028;15.470;2023-06-10T12:53:43;3.78;;;3.47;;
44048;SDS011;29717;47.028;15.470;2023-06-10T12:56:10;4.15;;;3.85;;
44048;SDS011;29717;47.028;15.470;2023-06-10T12:58:40;4.97;;;4.00;;
44048;SDS011;29717;47.028;15.470;2023-06-10T13:01:06;3.85;;;3.50;;
44048;SDS011;29717;47.028;15.470;2023-06-10T13:03:34;3.80;;;3.50;;
44048;SDS011;29717;47.028;15.470;2023-06-10T13:06:01;4.53;;;4.10;;
44048;SDS011;29717;47.028;15.470;2023-06-10T13:08:28;4.55;;;4.15;;
44048;SDS011;29717;47.028;15.470;2023-06-10T13:10:56;6.50;;;4.20;;
44048;SDS011;29717;47.028;15.470;2023-06-10T13:13:22;4.60;;;4.20;;
44048;SDS011;29717;47.028;15.470;2023-06-10T13:15:52;5.18;;;4.30;;
44048;SDS011;29717;47.028;15.470;2023-06-10T13:18:19;4.63;;;4.32;;
44048;SDS011;29717;47.028;15.470;2023-06-10T13:20:46;4.50;;;4.10;;
44048;SDS011;29717;47.028;15.470;2023-06-10T13:23:12;4.63;;;4.22;;
44048;SDS011;29717;47.028;15.470;2023-06-10T13:25:39;4.40;;;4.10;;
44048;SDS011;29717;47.028;15.470;2023-06-10T13:28:09;4.15;;;3.85;;
44048;SDS011;29717;47.028;15.470;2023-06-10T13:30:36;4.63;;;4.20;;
44048;SDS011;29717;47.028;15.470;2023-06-10T13:33:04;3.95;;;3.60;;
44048;SDS011;29717;47.028;15.470;2023-06-10T13:35:31;4.40;;;4.00;;
44048;SDS011;29717;47.028;15.470;2023-06-10T13:37:58;4.22;;;3.83;;
44048;SDS011;29717;47.028;15.470;2023-06-10T13:40:25;4.07;;;3.78;;
44048;SDS011;29717;47.028;15.470;2023-06-10T13:42:52;5.55;;;4.80;;
44048;SDS011;29717;47.028;15.470;2023-06-10T13:45:19;4.75;;;4.35;;
44048;SDS011;29717;47.028;15.470;2023-06-10T13:47:46;6.18;;;5.50;;
44048;SDS011;29717;47.028;15.470;2023-06-10T13:50:15;5.40;;;4.57;;
44048;SDS011;29717;47.028;15.470;2023-06-10T13:52:42;5.70;;;4.65;;
44048;SDS011;29717;47.028;15.470;2023-06-10T13:55:10;4.72;;;4.32;;
44048;SDS011;29717;47.028;15.470;2023-06-10T13:57:37;4.25;;;3.92;;
44048;SDS011;29717;47.028;15.470;2023-06-10T14:00:06;4.32;;;4.00;;
44048;SDS011;29717;47.028;15.470;2023-06-10T14:02:38;4.43;;;4.03;;
44048;SDS011;29717;47.028;15.470;2023-06-10T14:11:01;4.50;;;4.10;;
44048;SDS011;29717;47.028;15.470;2023-06-10T14:13:29;5.07;;;4.20;;
44048;SDS011;29717;47.028;15.470;2023-06-10T14:15:56;5.00;;;4.60;;
44048;SDS011;29717;47.028;15.470;2023-06-10T14:20:59;4.47;;;4.07;;
44048;SDS011;29717;47.028;15.470;2023-06-10T14:23:28;4.65;;;4.25;;
44048;SDS011;29717;47.028;15.470;2023-06-10T14:25:56;4.82;;;4.35;;
44048;SDS011;29717;47.028;15.470;2023-06-10T14:28:27;7.18;;;4.63;;
44048;SDS011;29717;47.028;15.470;2023-06-10T14:30:54;4.95;;;4.45;;
44048;SDS011;29717;47.028;15.470;2023-06-10T14:33:23;5.28;;;4.88;;
44048;SDS011;29717;47.028;15.470;2023-06-10T14:35:56;7.57;;;5.35;;
44048;SDS011;29717;47.028;15.470;2023-06-10T14:38:23;6.38;;;5.05;;
44048;SDS011;29717;47.028;15.470;2023-06-10T14:40:50;6.93;;;5.10;;
44048;SDS011;29717;47.028;15.470;2023-06-10T14:43:17;8.90;;;6.38;;
44048;SDS011;29717;47.028;15.470;2023-06-10T14:45:46;6.22;;;5.50;;
44048;SDS011;29717;47.028;15.470;2023-06-10T14:48:16;5.97;;;5.47;;
44048;SDS011;29717;47.028;15.470;2023-06-10T14:50:42;5.90;;;5.40;;
44048;SDS011;29717;47.028;15.470;2023-06-10T14:53:11;5.72;;;5.22;;
44048;SDS011;29717;47.028;15.470;2023-06-10T14:55:38;5.63;;;5.22;;
44048;SDS011;29717;47.028;15.470;2023-06-10T14:58:12;6.07;;;5.50;;
44048;SDS011;29717;47.028;15.470;2023-06-10T15:00:54;6.47;;;5.25;;
44048;SDS011;29717;47.028;15.470;2023-06-10T15:03:21;5.93;;;5.43;;
44048;SDS011;29717;47.028;15.470;2023-06-10T15:05:48;6.90;;;5.90;;
44048;SDS011;29717;47.028;15.470;2023-06-10T15:08:15;20.85;;;12.50;;
44048;SDS011;29717;47.028;15.470;2023-06-10T15:10:42;14.35;;;11.57;;
44048;SDS011;29717;47.028;15.470;2023-06-10T15:13:09;20.98;;;16.88;;
44048;SDS011;29717;47.028;15.470;2023-06-10T15:15:36;17.63;;;12.02;;
44048;SDS011;29717;47.028;15.470;2023-06-10T15:18:04;7.25;;;6.57;;
44048;SDS011;29717;47.028;15.470;2023-06-10T15:20:31;29.10;;;22.55;;
44048;SDS011;29717;47.028;15.470;2023-06-10T15:22:58;17.20;;;14.27;;
44048;SDS011;29717;47.028;15.470;2023-06-10T15:25:25;11.50;;;10.30;;
44048;SDS011;29717;47.028;15.470;2023-06-10T15:27:54;78.50;;;54.97;;
44048;SDS011;29717;47.028;15.470;2023-06-10T15:30:28;8.27;;;7.50;;
44048;SDS011;29717;47.028;15.470;2023-06-10T15:32:55;6.97;;;6.30;;
44048;SDS011;29717;47.028;15.470;2023-06-10T15:35:26;6.43;;;5.82;;
44048;SDS011;29717;47.028;15.470;2023-06-10T15:37:54;6.13;;;5.60;;
44048;SDS011;29717;47.028;15.470;2023-06-10T15:40:21;7.68;;;5.95;;
44048;SDS011;29717;47.028;15.470;2023-06-10T15:42:48;6.38;;;5.82;;
44048;SDS011;29717;47.028;15.470;2023-06-10T15:45:18;6.10;;;5.60;;
44048;SDS011;29717;47.028;15.470;2023-06-10T15:47:45;6.25;;;5.65;;
44048;SDS011;29717;47.028;15.470;2023-06-10T15:50:12;5.82;;;5.35;;
44048;SDS011;29717;47.028;15.470;2023-06-10T15:52:46;6.15;;;5.65;;
44048;SDS011;29717;47.028;15.470;2023-06-10T15:55:20;6.47;;;5.88;;
44048;SDS011;29717;47.028;15.470;2023-06-10T15:57:47;6.30;;;5.80;;
44048;SDS011;29717;47.028;15.470;2023-06-10T16:00:14;6.32;;;5.72;;
44048;SDS011;29717;47.028;15.470;2023-06-10T16:02:41;6.28;;;5.65;;
44048;SDS011;29717;47.028;15.470;2023-06-10T16:05:08;11.13;;;10.07;;
44048;SDS011;29717;47.028;15.470;2023-06-10T16:07:35;149.43;;;133.73;;
44048;SDS011;29717;47.028;15.470;2023-06-10T16:10:04;895.45;;;796.08;;
44048;SDS011;29717;47.028;15.470;2023-06-10T16:12:31;877.58;;;614.65;;
44048;SDS011;29717;47.028;15.470;2023-06-10T16:14:57;866.47;;;587.95;;
44048;SDS011;29717;47.028;15.470;2023-06-10T16:17:24;77.28;;;58.58;;
44048;SDS011;29717;47.028;15.470;2023-06-10T16:19:52;81.35;;;70.30;;
44048;SDS011;29717;47.028;15.470;2023-06-10T16:22:21;9.80;;;8.85;;
44048;SDS011;29717;47.028;15.470;2023-06-10T16:24:47;7.00;;;5.90;;
44048;SDS011;29717;47.028;15.470;2023-06-10T16:27:19;5.53;;;5.03;;
44048;SDS011;29717;47.028;15.470;2023-06-10T16:29:51;6.53;;;5.38;;
44048;SDS011;29717;47.028;15.470;2023-06-10T16:32:19;6.32;;;5.82;;
44048;SDS011;29717;47.028;15.470;2023-06-10T16:34:46;6.13;;;5.60;;
44048;SDS011;29717;47.028;15.470;2023-06-10T16:37:13;6.03;;;5.40;;
44048;SDS011;29717;47.028;15.470;2023-06-10T16:39:40;6.03;;;5.53;;
44048;SDS011;29717;47.028;15.470;2023-06-10T16:42:08;6.88;;;5.55;;
44048;SDS011;29717;47.028;15.470;2023-06-10T16:44:39;6.00;;;5.50;;
44048;SDS011;29717;47.028;15.470;2023-06-10T16:47:06;6.05;;;5.55;;
44048;SDS011;29717;47.028;15.470;2023-06-10T16:49:32;6.07;;;5.57;;
44048;SDS011;29717;47.028;15.470;2023-06-10T16:52:01;5.97;;;5.47;;
44048;SDS011;29717;47.028;15.470;2023-06-10T16:54:28;6.22;;;5.50;;
44048;SDS011;29717;47.028;15.470;2023-06-10T16:56:55;6.00;;;5.40;;